Gant Flair — D5IK8 — position and weather

sailwx.info

Track history (hours):
 
Tides and Currents Weather Stations Pressure Air Temp Water Temp Dewpoint Dewpoint Depression Visibility Wind Speed Wind Dir Waves Ship Positions

Gant Flair

Last reported at 2018-Feb-13 08:03 UTC. Time now 2018-Feb-20 14:06 UTC.
Position N 35°59' W 005°14'.

Length 169 m; draft 9.9 m.

Type: Cargo ship. MMSI: 636016926.

Date/timePositionNaut miles runAvg speedWind from/ knotsBaromVisibWave heightAir tempDewpointWater temp
2018-Feb-13 08:03N 35°59' W 005°14'115.1
2018-Feb-13 07:57N 35°59' W 005°16'715.3
2018-Feb-13 07:30N 35°58' W 005°24'24711.5
2018-Feb-12 10:05N 37°59' W 009°54'213.1
2018-Feb-12 09:57N 38°01' W 009°55'613.2
2018-Feb-12 09:30N 38°06' W 009°56'713.3
2018-Feb-12 09:00N 38°13' W 009°58'713.4
2018-Feb-12 08:30N 38°19' W 010°00'713.3
2018-Feb-12 08:00N 38°26' W 010°02'613.0
2018-Feb-12 07:30N 38°32' W 010°04'713.2
2018-Feb-12 07:00N 38°39' W 010°06'613.2
2018-Feb-12 06:30N 38°45' W 010°07'713.4
2018-Feb-12 05:59N 38°52' W 010°07'613.1
2018-Feb-12 05:30N 38°58' W 010°07'713.0
2018-Feb-12 04:59N 39°05' W 010°07'612.8
2018-Feb-12 04:30N 39°11' W 010°07'712.9
2018-Feb-12 03:58N 39°18' W 010°07'612.8
2018-Feb-12 03:30N 39°24' W 010°07'  
2018-Feb-09 03:30N 49°58' W 002°51'16 7.8
2018-Feb-09 01:30N 50°02' W 002°28'32 9.1
2018-Feb-08 22:00N 49°55' W 001°40'2612.8
2018-Feb-08 20:00N 49°46' W 001°03'3611.9
2018-Feb-08 17:00N 49°31' W 000°12'510.7
2018-Feb-08 16:30N 49°29' W 000°05'5 9.8
2018-Feb-08 16:00N 49°27' E 000°02'510.0
2018-Feb-08 15:30N 49°26' E 000°09'5 9.3
2018-Feb-08 15:00N 49°26' E 000°17'4 8.5
2018-Feb-08 14:30N 49°27' E 000°23'6 6.4
2018-Feb-08 13:30N 49°28' E 000°33'4 7.3
2018-Feb-08 13:00N 49°26' E 000°38'7 6.9
2018-Feb-08 12:00N 49°31' E 000°46'8 7.6
2018-Feb-08 11:00N 49°24' E 000°51'5 9.7
2018-Feb-08 10:30N 49°28' E 000°52'3 6.6
2018-Feb-08 10:00N 49°27' E 000°56'5 0.6
2018-Feb-08 01:30N 49°22' E 000°59'0 0.0
2018-Feb-08 01:00N 49°22' E 000°59'0 0.0
2018-Feb-08 00:30N 49°22' E 000°59'0 0.0
2018-Feb-08 00:00N 49°22' E 000°59'0 0.0
2018-Feb-07 23:30N 49°22' E 000°59'0 0.0
2018-Feb-07 23:00N 49°22' E 000°59'0 0.0
2018-Feb-07 22:30N 49°22' E 000°59'0 0.0
2018-Feb-07 22:00N 49°22' E 000°59'0 0.0
2018-Feb-07 21:30N 49°22' E 000°59'0 0.0
2018-Feb-07 09:30N 49°22' E 000°59'0 0.0
2018-Feb-07 09:00N 49°22' E 000°59'0 0.0
2018-Feb-07 08:30N 49°22' E 000°59'0 0.0
2018-Feb-07 08:00N 49°22' E 000°59'0 0.0
2018-Feb-07 07:30N 49°22' E 000°59'0 0.0
2018-Feb-07 07:00N 49°22' E 000°59'0 0.0
2018-Feb-07 06:30N 49°22' E 000°59'0 0.0
2018-Feb-07 06:00N 49°22' E 000°59'0 0.0
2018-Feb-07 05:30N 49°22' E 000°59'0 0.0
2018-Feb-07 05:00N 49°22' E 000°59'0 0.0
2018-Feb-07 04:30N 49°22' E 000°59'0 0.0
2018-Feb-07 04:00N 49°22' E 000°59'0 0.0
2018-Feb-07 03:30N 49°22' E 000°59'0 0.0
2018-Feb-07 03:00N 49°22' E 000°59'0 0.0
2018-Feb-07 02:30N 49°22' E 000°59'0 0.0
2018-Feb-07 02:00N 49°22' E 000°59'0 0.0
2018-Feb-07 01:30N 49°22' E 000°59'0 0.0
2018-Feb-07 01:00N 49°22' E 000°59'0 0.0
2018-Feb-07 00:30N 49°22' E 000°59'0 0.0
2018-Feb-07 00:00N 49°22' E 000°59'0 0.0
2018-Feb-06 23:30N 49°22' E 000°59'0 0.0
2018-Feb-06 23:00N 49°22' E 000°59'0 0.0
2018-Feb-06 22:30N 49°22' E 000°59'0 0.0
2018-Feb-06 22:00N 49°22' E 000°59'0 0.0
2018-Feb-06 21:30N 49°22' E 000°59'0 0.0
2018-Feb-06 21:00N 49°22' E 000°59'0 0.0
2018-Feb-06 20:30N 49°22' E 000°59'0 0.0
2018-Feb-06 20:00N 49°22' E 000°59'0 0.0
2018-Feb-06 19:30N 49°22' E 000°59'0 0.0
2018-Feb-06 19:00N 49°22' E 000°59'0 0.0
2018-Feb-06 18:30N 49°22' E 000°59'0 0.0
2018-Feb-06 18:00N 49°22' E 000°59'0 0.0
2018-Feb-06 17:30N 49°22' E 000°59'0 0.0
2018-Feb-06 17:00N 49°22' E 000°59'0 0.0
2018-Feb-06 16:30N 49°22' E 000°59'0 0.0
2018-Feb-06 16:00N 49°22' E 000°59'0 0.0
2018-Feb-06 15:30N 49°22' E 000°59'0 0.0
2018-Feb-06 15:00N 49°22' E 000°59'0 0.0
2018-Feb-06 14:30N 49°22' E 000°59'0 0.0
2018-Feb-06 14:00N 49°22' E 000°59'0 0.0
2018-Feb-06 13:30N 49°22' E 000°59'0 0.0
2018-Feb-06 13:00N 49°22' E 000°59'0 0.0
2018-Feb-06 12:30N 49°22' E 000°59'0 0.0
2018-Feb-06 12:00N 49°22' E 000°59'0 0.0
2018-Feb-06 11:30N 49°22' E 000°59'0 0.0
2018-Feb-06 11:00N 49°22' E 000°59'0 0.0
2018-Feb-06 10:30N 49°22' E 000°59'0 0.0
2018-Feb-06 10:00N 49°22' E 000°59'0 0.0
2018-Feb-06 09:30N 49°22' E 000°59'0 0.0
2018-Feb-06 09:00N 49°22' E 000°59'0 0.0
2018-Feb-06 08:30N 49°22' E 000°59'0 0.0
2018-Feb-06 08:00N 49°22' E 000°59'0 0.0
2018-Feb-06 07:30N 49°22' E 000°59'0 0.0
2018-Feb-06 07:00N 49°22' E 000°59'0 0.0
2018-Feb-06 06:30N 49°22' E 000°59'0 0.0
2018-Feb-06 06:00N 49°22' E 000°59'0 0.0
2018-Feb-06 05:30N 49°22' E 000°59'0 0.0
2018-Feb-06 05:00N 49°22' E 000°59'0 0.0
2018-Feb-06 04:30N 49°22' E 000°59'0 0.0
2018-Feb-06 04:00N 49°22' E 000°59'0 0.3
2018-Feb-06 03:30N 49°22' E 000°59'2 3.0
2018-Feb-06 03:00N 49°21' E 000°57'4 8.0
2018-Feb-06 02:30N 49°25' E 000°56'4 8.8
2018-Feb-06 02:00N 49°29' E 000°53'510.6
2018-Feb-06 01:30N 49°24' E 000°52'4 8.8
2018-Feb-06 01:00N 49°28' E 000°49'510.0
2018-Feb-06 00:30N 49°31' E 000°44'5 9.5
2018-Feb-06 00:00N 49°27' E 000°40'5 9.4
2018-Feb-05 23:30N 49°28' E 000°32'2110.5
2018-Feb-05 21:30N 49°28' E 000°00'3 5.6
2018-Feb-05 21:00N 49°29' W 000°04'3 5.7
2018-Feb-05 20:30N 49°29' W 000°08'0 0.3
2018-Feb-05 20:00N 49°29' W 000°09'0 0.0
2018-Feb-05 18:30N 49°29' W 000°09'0 0.0
2018-Feb-05 18:00N 49°29' W 000°09'0 0.0
2018-Feb-05 17:30N 49°29' W 000°09'0 0.0
2018-Feb-05 17:00N 49°29' W 000°09'0 0.0
2018-Feb-05 16:30N 49°29' W 000°09'0 0.0
2018-Feb-05 16:00N 49°29' W 000°09'0 0.1
2018-Feb-05 15:00N 49°28' W 000°09'13 6.5
2018-Feb-05 12:59N 49°34' W 000°27'4 8.7
2018-Feb-05 12:30N 49°35' W 000°33'510.3
2018-Feb-05 12:00N 49°35' W 000°41'2 4.7
2018-Feb-05 11:29N 49°36' W 000°44'1 2.8
2018-Feb-05 10:59N 49°38' W 000°45'2 3.3
2018-Feb-05 10:30N 49°39' W 000°46'2 3.1
2018-Feb-05 09:58N 49°41' W 000°46'1 2.9
2018-Feb-05 09:29N 49°42' W 000°47'1 2.6
2018-Feb-05 09:00N 49°44' W 000°47'1 1.9
2018-Feb-05 08:28N 49°45' W 000°47'1 2.4
2018-Feb-05 08:00N 49°46' W 000°46'1 2.4
2018-Feb-05 07:28N 49°47' W 000°45'1 1.8
2018-Feb-05 06:59N 49°47' W 000°45'3 5.7
2018-Feb-05 06:31N 49°48' W 000°49'5 4.5
2018-Feb-05 05:30N 49°48' W 000°42'1 1.2
2018-Feb-05 04:58N 49°47' W 000°42'3 6.8
2018-Feb-05 04:30N 49°48' W 000°47'3 5.7
2018-Feb-05 04:00N 49°48' W 000°51'2 4.3
2018-Feb-05 03:30N 49°47' W 000°48'2 3.5
2018-Feb-05 03:00N 49°47' W 000°45'1 2.8
2018-Feb-05 02:30N 49°47' W 000°43'1 2.0
2018-Feb-05 02:01N 49°48' W 000°42'1 1.3
2018-Feb-05 01:31N 49°48' W 000°41'0 0.7
2018-Feb-05 01:00N 49°48' W 000°40'0 0.2
2018-Feb-05 00:30N 49°48' W 000°40'0 0.1
2018-Feb-05 00:01N 49°47' W 000°40'0 0.2
2018-Feb-04 23:31N 49°48' W 000°40'4 6.8
2018-Feb-04 22:58N 49°45' W 000°35'1 1.8
2018-Feb-04 22:31N 49°46' W 000°34'2 3.4
2018-Feb-04 22:00N 49°48' W 000°35'2 3.5
2018-Feb-04 21:30N 49°49' W 000°36'2 3.2
2018-Feb-04 21:01N 49°51' W 000°36'7 6.9
2018-Feb-04 20:00N 49°54' W 000°27'3 5.2
2018-Feb-04 19:31N 49°56' W 000°24'2 3.5
2018-Feb-04 19:00N 49°57' W 000°22'2 3.6
2018-Feb-04 18:31N 49°59' W 000°21'2 3.7
2018-Feb-04 18:00N 50°00' W 000°19'2 3.9
2018-Feb-04 17:29N 50°02' W 000°17'17 8.5
2018-Feb-04 15:31N 50°18' W 000°12'612.0
2018-Feb-04 15:01N 50°24' W 000°10'612.2
2018-Feb-04 14:30N 50°27' W 000°01'611.7
2018-Feb-04 13:59N 50°29' E 000°08'511.0
2018-Feb-04 13:31N 50°31' E 000°15'510.5
2018-Feb-04 13:00N 50°33' E 000°23'510.0
2018-Feb-04 12:31N 50°35' E 000°30'5 9.6
2018-Feb-04 12:01N 50°37' E 000°37'5 9.9
2018-Feb-04 11:30N 50°41' E 000°43'1610.8
2018-Feb-04 10:00N 50°51' E 001°03'1312.5
2018-Feb-04 08:58N 50°59' E 001°18'714.8
2018-Feb-04 08:30N 51°04' E 001°27'714.6
2018-Feb-04 08:01N 51°09' E 001°35'713.4
2018-Feb-04 07:31N 51°13' E 001°44'611.8
2018-Feb-04 07:01N 51°18' E 001°49'510.8
2018-Feb-04 06:30N 51°22' E 001°53'510.3
2018-Feb-04 06:01N 51°27' E 001°58'5 9.8
2018-Feb-04 05:31N 51°31' E 002°02'5 9.3
2018-Feb-04 05:00N 51°35' E 002°05'5 9.3
2018-Feb-04 04:31N 51°39' E 002°10'3 5.1
2018-Feb-04 04:00N 51°41' E 002°11'0 1.0
2018-Feb-04 03:30N 51°42' E 002°11'1 1.2
2018-Feb-04 02:59N 51°42' E 002°11'1 1.5
2018-Feb-04 02:29N 51°43' E 002°11'1 2.0
2018-Feb-04 02:01N 51°44' E 002°11'2 2.5
2018-Feb-04 01:24N 51°45' E 002°12'59 6.2
2018-Feb-03 16:00N 52°04' E 003°42'5 9.4
2018-Feb-03 15:30N 52°04' E 003°50'4 7.7
2018-Feb-03 15:00N 52°02' E 003°56'5 9.6
2018-Feb-03 14:30N 51°60' E 004°02'510.7
2018-Feb-03 14:01N 51°57' E 004°10'510.6
2018-Feb-03 13:31N 51°54' E 004°17'4 8.4
2018-Feb-03 13:00N 51°54' E 004°24'1 2.2
2018-Feb-03 12:30N 51°55' E 004°25'0 0.0
2018-Feb-03 12:00N 51°55' E 004°25'0 0.0
2018-Feb-03 11:30N 51°55' E 004°25'0 0.0
2018-Feb-03 11:00N 51°55' E 004°25'0 0.0
2018-Feb-03 10:30N 51°55' E 004°25'0 0.0
2018-Feb-03 10:00N 51°55' E 004°25'0 0.0
2018-Feb-03 09:30N 51°55' E 004°25'0 0.0
2018-Feb-03 09:00N 51°55' E 004°25'0 0.0
2018-Feb-03 08:30N 51°55' E 004°25'  
Track history (hours):
 
Tides and Currents Weather Stations Pressure Air Temp Water Temp Dewpoint Dewpoint Depression Visibility Wind Speed Wind Dir Waves Ship Positions

Gant Flair

Last reported at 2018-Feb-13 08:03 UTC. Time now 2018-Feb-20 14:06 UTC.
Position N 35°59' W 005°14'.

Length 169 m; draft 9.9 m.

Type: Cargo ship. MMSI: 636016926.

Date/timePositionNaut miles runAvg speedWind from/ knotsBaromVisibWave heightAir tempDewpointWater temp
2018-Feb-13 08:03N 35°59' W 005°14'115.1
2018-Feb-13 07:57N 35°59' W 005°16'715.3
2018-Feb-13 07:30N 35°58' W 005°24'24711.5
2018-Feb-12 10:05N 37°59' W 009°54'213.1
2018-Feb-12 09:57N 38°01' W 009°55'613.2
2018-Feb-12 09:30N 38°06' W 009°56'713.3
2018-Feb-12 09:00N 38°13' W 009°58'713.4
2018-Feb-12 08:30N 38°19' W 010°00'713.3
2018-Feb-12 08:00N 38°26' W 010°02'613.0
2018-Feb-12 07:30N 38°32' W 010°04'713.2
2018-Feb-12 07:00N 38°39' W 010°06'613.2
2018-Feb-12 06:30N 38°45' W 010°07'713.4
2018-Feb-12 05:59N 38°52' W 010°07'613.1
2018-Feb-12 05:30N 38°58' W 010°07'713.0
2018-Feb-12 04:59N 39°05' W 010°07'612.8
2018-Feb-12 04:30N 39°11' W 010°07'712.9
2018-Feb-12 03:58N 39°18' W 010°07'612.8
2018-Feb-12 03:30N 39°24' W 010°07'  
2018-Feb-09 03:30N 49°58' W 002°51'16 7.8
2018-Feb-09 01:30N 50°02' W 002°28'32 9.1
2018-Feb-08 22:00N 49°55' W 001°40'2612.8
2018-Feb-08 20:00N 49°46' W 001°03'3611.9
2018-Feb-08 17:00N 49°31' W 000°12'510.7
2018-Feb-08 16:30N 49°29' W 000°05'5 9.8
2018-Feb-08 16:00N 49°27' E 000°02'510.0
2018-Feb-08 15:30N 49°26' E 000°09'5 9.3
2018-Feb-08 15:00N 49°26' E 000°17'4 8.5
2018-Feb-08 14:30N 49°27' E 000°23'6 6.4
2018-Feb-08 13:30N 49°28' E 000°33'4 7.3
2018-Feb-08 13:00N 49°26' E 000°38'7 6.9
2018-Feb-08 12:00N 49°31' E 000°46'8 7.6
2018-Feb-08 11:00N 49°24' E 000°51'5 9.7
2018-Feb-08 10:30N 49°28' E 000°52'3 6.6
2018-Feb-08 10:00N 49°27' E 000°56'5 0.6
2018-Feb-08 01:30N 49°22' E 000°59'0 0.0
2018-Feb-08 01:00N 49°22' E 000°59'0 0.0
2018-Feb-08 00:30N 49°22' E 000°59'0 0.0
2018-Feb-08 00:00N 49°22' E 000°59'0 0.0
2018-Feb-07 23:30N 49°22' E 000°59'0 0.0
2018-Feb-07 23:00N 49°22' E 000°59'0 0.0
2018-Feb-07 22:30N 49°22' E 000°59'0 0.0
2018-Feb-07 22:00N 49°22' E 000°59'0 0.0
2018-Feb-07 21:30N 49°22' E 000°59'0 0.0
2018-Feb-07 09:30N 49°22' E 000°59'0 0.0
2018-Feb-07 09:00N 49°22' E 000°59'0 0.0
2018-Feb-07 08:30N 49°22' E 000°59'0 0.0
2018-Feb-07 08:00N 49°22' E 000°59'0 0.0
2018-Feb-07 07:30N 49°22' E 000°59'0 0.0
2018-Feb-07 07:00N 49°22' E 000°59'0 0.0
2018-Feb-07 06:30N 49°22' E 000°59'0 0.0
2018-Feb-07 06:00N 49°22' E 000°59'0 0.0
2018-Feb-07 05:30N 49°22' E 000°59'0 0.0
2018-Feb-07 05:00N 49°22' E 000°59'0 0.0
2018-Feb-07 04:30N 49°22' E 000°59'0 0.0
2018-Feb-07 04:00N 49°22' E 000°59'0 0.0
2018-Feb-07 03:30N 49°22' E 000°59'0 0.0
2018-Feb-07 03:00N 49°22' E 000°59'0 0.0
2018-Feb-07 02:30N 49°22' E 000°59'0 0.0
2018-Feb-07 02:00N 49°22' E 000°59'0 0.0
2018-Feb-07 01:30N 49°22' E 000°59'0 0.0
2018-Feb-07 01:00N 49°22' E 000°59'0 0.0
2018-Feb-07 00:30N 49°22' E 000°59'0 0.0
2018-Feb-07 00:00N 49°22' E 000°59'0 0.0
2018-Feb-06 23:30N 49°22' E 000°59'0 0.0
2018-Feb-06 23:00N 49°22' E 000°59'0 0.0
2018-Feb-06 22:30N 49°22' E 000°59'0 0.0
2018-Feb-06 22:00N 49°22' E 000°59'0 0.0
2018-Feb-06 21:30N 49°22' E 000°59'0 0.0
2018-Feb-06 21:00N 49°22' E 000°59'0 0.0
2018-Feb-06 20:30N 49°22' E 000°59'0 0.0
2018-Feb-06 20:00N 49°22' E 000°59'0 0.0
2018-Feb-06 19:30N 49°22' E 000°59'0 0.0
2018-Feb-06 19:00N 49°22' E 000°59'0 0.0
2018-Feb-06 18:30N 49°22' E 000°59'0 0.0
2018-Feb-06 18:00N 49°22' E 000°59'0 0.0
2018-Feb-06 17:30N 49°22' E 000°59'0 0.0
2018-Feb-06 17:00N 49°22' E 000°59'0 0.0
2018-Feb-06 16:30N 49°22' E 000°59'0 0.0
2018-Feb-06 16:00N 49°22' E 000°59'0 0.0
2018-Feb-06 15:30N 49°22' E 000°59'0 0.0
2018-Feb-06 15:00N 49°22' E 000°59'0 0.0
2018-Feb-06 14:30N 49°22' E 000°59'0 0.0
2018-Feb-06 14:00N 49°22' E 000°59'0 0.0
2018-Feb-06 13:30N 49°22' E 000°59'0 0.0
2018-Feb-06 13:00N 49°22' E 000°59'0 0.0
2018-Feb-06 12:30N 49°22' E 000°59'0 0.0
2018-Feb-06 12:00N 49°22' E 000°59'0 0.0
2018-Feb-06 11:30N 49°22' E 000°59'0 0.0
2018-Feb-06 11:00N 49°22' E 000°59'0 0.0
2018-Feb-06 10:30N 49°22' E 000°59'0 0.0
2018-Feb-06 10:00N 49°22' E 000°59'0 0.0
2018-Feb-06 09:30N 49°22' E 000°59'0 0.0
2018-Feb-06 09:00N 49°22' E 000°59'0 0.0
2018-Feb-06 08:30N 49°22' E 000°59'0 0.0
2018-Feb-06 08:00N 49°22' E 000°59'0 0.0
2018-Feb-06 07:30N 49°22' E 000°59'0 0.0
2018-Feb-06 07:00N 49°22' E 000°59'0 0.0
2018-Feb-06 06:30N 49°22' E 000°59'0 0.0
2018-Feb-06 06:00N 49°22' E 000°59'0 0.0
2018-Feb-06 05:30N 49°22' E 000°59'0 0.0
2018-Feb-06 05:00N 49°22' E 000°59'0 0.0
2018-Feb-06 04:30N 49°22' E 000°59'0 0.0
2018-Feb-06 04:00N 49°22' E 000°59'0 0.3
2018-Feb-06 03:30N 49°22' E 000°59'2 3.0
2018-Feb-06 03:00N 49°21' E 000°57'4 8.0
2018-Feb-06 02:30N 49°25' E 000°56'4 8.8
2018-Feb-06 02:00N 49°29' E 000°53'510.6
2018-Feb-06 01:30N 49°24' E 000°52'4 8.8
2018-Feb-06 01:00N 49°28' E 000°49'510.0
2018-Feb-06 00:30N 49°31' E 000°44'5 9.5
2018-Feb-06 00:00N 49°27' E 000°40'5 9.4
2018-Feb-05 23:30N 49°28' E 000°32'2110.5
2018-Feb-05 21:30N 49°28' E 000°00'3 5.6
2018-Feb-05 21:00N 49°29' W 000°04'3 5.7
2018-Feb-05 20:30N 49°29' W 000°08'0 0.3
2018-Feb-05 20:00N 49°29' W 000°09'0 0.0
2018-Feb-05 18:30N 49°29' W 000°09'0 0.0
2018-Feb-05 18:00N 49°29' W 000°09'0 0.0
2018-Feb-05 17:30N 49°29' W 000°09'0 0.0
2018-Feb-05 17:00N 49°29' W 000°09'0 0.0
2018-Feb-05 16:30N 49°29' W 000°09'0 0.0
2018-Feb-05 16:00N 49°29' W 000°09'0 0.1
2018-Feb-05 15:00N 49°28' W 000°09'13 6.5
2018-Feb-05 12:59N 49°34' W 000°27'4 8.7
2018-Feb-05 12:30N 49°35' W 000°33'510.3
2018-Feb-05 12:00N 49°35' W 000°41'2 4.7
2018-Feb-05 11:29N 49°36' W 000°44'1 2.8
2018-Feb-05 10:59N 49°38' W 000°45'2 3.3
2018-Feb-05 10:30N 49°39' W 000°46'2 3.1
2018-Feb-05 09:58N 49°41' W 000°46'1 2.9
2018-Feb-05 09:29N 49°42' W 000°47'1 2.6
2018-Feb-05 09:00N 49°44' W 000°47'1 1.9
2018-Feb-05 08:28N 49°45' W 000°47'1 2.4
2018-Feb-05 08:00N 49°46' W 000°46'1 2.4
2018-Feb-05 07:28N 49°47' W 000°45'1 1.8
2018-Feb-05 06:59N 49°47' W 000°45'3 5.7
2018-Feb-05 06:31N 49°48' W 000°49'5 4.5
2018-Feb-05 05:30N 49°48' W 000°42'1 1.2
2018-Feb-05 04:58N 49°47' W 000°42'3 6.8
2018-Feb-05 04:30N 49°48' W 000°47'3 5.7
2018-Feb-05 04:00N 49°48' W 000°51'2 4.3
2018-Feb-05 03:30N 49°47' W 000°48'2 3.5
2018-Feb-05 03:00N 49°47' W 000°45'1 2.8
2018-Feb-05 02:30N 49°47' W 000°43'1 2.0
2018-Feb-05 02:01N 49°48' W 000°42'1 1.3
2018-Feb-05 01:31N 49°48' W 000°41'0 0.7
2018-Feb-05 01:00N 49°48' W 000°40'0 0.2
2018-Feb-05 00:30N 49°48' W 000°40'0 0.1
2018-Feb-05 00:01N 49°47' W 000°40'0 0.2
2018-Feb-04 23:31N 49°48' W 000°40'4 6.8
2018-Feb-04 22:58N 49°45' W 000°35'1 1.8
2018-Feb-04 22:31N 49°46' W 000°34'2 3.4
2018-Feb-04 22:00N 49°48' W 000°35'2 3.5
2018-Feb-04 21:30N 49°49' W 000°36'2 3.2
2018-Feb-04 21:01N 49°51' W 000°36'7 6.9
2018-Feb-04 20:00N 49°54' W 000°27'3 5.2
2018-Feb-04 19:31N 49°56' W 000°24'2 3.5
2018-Feb-04 19:00N 49°57' W 000°22'2 3.6
2018-Feb-04 18:31N 49°59' W 000°21'2 3.7
2018-Feb-04 18:00N 50°00' W 000°19'2 3.9
2018-Feb-04 17:29N 50°02' W 000°17'17 8.5
2018-Feb-04 15:31N 50°18' W 000°12'612.0
2018-Feb-04 15:01N 50°24' W 000°10'612.2
2018-Feb-04 14:30N 50°27' W 000°01'611.7
2018-Feb-04 13:59N 50°29' E 000°08'511.0
2018-Feb-04 13:31N 50°31' E 000°15'510.5
2018-Feb-04 13:00N 50°33' E 000°23'510.0
2018-Feb-04 12:31N 50°35' E 000°30'5 9.6
2018-Feb-04 12:01N 50°37' E 000°37'5 9.9
2018-Feb-04 11:30N 50°41' E 000°43'1610.8
2018-Feb-04 10:00N 50°51' E 001°03'1312.5
2018-Feb-04 08:58N 50°59' E 001°18'714.8
2018-Feb-04 08:30N 51°04' E 001°27'714.6
2018-Feb-04 08:01N 51°09' E 001°35'713.4
2018-Feb-04 07:31N 51°13' E 001°44'611.8
2018-Feb-04 07:01N 51°18' E 001°49'510.8
2018-Feb-04 06:30N 51°22' E 001°53'510.3
2018-Feb-04 06:01N 51°27' E 001°58'5 9.8
2018-Feb-04 05:31N 51°31' E 002°02'5 9.3
2018-Feb-04 05:00N 51°35' E 002°05'5 9.3
2018-Feb-04 04:31N 51°39' E 002°10'3 5.1
2018-Feb-04 04:00N 51°41' E 002°11'0 1.0
2018-Feb-04 03:30N 51°42' E 002°11'1 1.2
2018-Feb-04 02:59N 51°42' E 002°11'1 1.5
2018-Feb-04 02:29N 51°43' E 002°11'1 2.0
2018-Feb-04 02:01N 51°44' E 002°11'2 2.5
2018-Feb-04 01:24N 51°45' E 002°12'59 6.2
2018-Feb-03 16:00N 52°04' E 003°42'5 9.4
2018-Feb-03 15:30N 52°04' E 003°50'4 7.7
2018-Feb-03 15:00N 52°02' E 003°56'5 9.6
2018-Feb-03 14:30N 51°60' E 004°02'510.7
2018-Feb-03 14:01N 51°57' E 004°10'510.6
2018-Feb-03 13:31N 51°54' E 004°17'4 8.4
2018-Feb-03 13:00N 51°54' E 004°24'1 2.2
2018-Feb-03 12:30N 51°55' E 004°25'0 0.0
2018-Feb-03 12:00N 51°55' E 004°25'0 0.0
2018-Feb-03 11:30N 51°55' E 004°25'0 0.0
2018-Feb-03 11:00N 51°55' E 004°25'0 0.0
2018-Feb-03 10:30N 51°55' E 004°25'0 0.0
2018-Feb-03 10:00N 51°55' E 004°25'0 0.0
2018-Feb-03 09:30N 51°55' E 004°25'0 0.0
2018-Feb-03 09:00N 51°55' E 004°25'0 0.0
2018-Feb-03 08:30N 51°55' E 004°25'  

Dump ship's entire track history